Time;durP1;ratioP1;P1;durP2;ratioP2;P2;SDS_P1;SDS_P2;PMS_P1;PMS_P2;Temp;Humidity;BMP_temperature;BMP_pressure;BME280_temperature;BME280_humidity;BME280_pressure;Samples;Min_cycle;Max_cycle;Signal;HPM_P1;HPM_P2
2021/05/18 00:00:01;;;;;;;0.77;0.40;;;;;;;;;;4988812;28;20037;-70
2021/05/18 00:02:27;;;;;;;1.63;0.47;;;;;;;;;;5007577;28;20032;-70
2021/05/18 00:04:53;;;;;;;2.72;0.50;;;;;;;;;;5012702;28;20030;-68
2021/05/18 00:07:22;;;;;;;1.48;0.63;;;;;;;;;;5012784;28;20067;-70
2021/05/18 00:12:33;;;;;;;2.85;0.80;;;;;;;;;;5012525;28;20106;-71
2021/05/18 00:15:00;;;;;;;8.02;0.82;;;;;;;;;;5012269;28;20109;-74
2021/05/18 00:17:27;;;;;;;4.32;0.50;;;;;;;;;;5011691;28;20051;-69
2021/05/18 00:19:54;;;;;;;2.33;0.68;;;;;;;;;;5011655;28;20040;-68
2021/05/18 00:22:20;;;;;;;2.10;0.70;;;;;;;;;;5014276;28;20022;-66
2021/05/18 00:24:46;;;;;;;3.20;0.70;;;;;;;;;;5013755;28;20030;-66
2021/05/18 00:27:12;;;;;;;6.00;0.70;;;;;;;;;;5010738;28;20104;-73
2021/05/18 00:29:38;;;;;;;3.13;0.70;;;;;;;;;;5010497;28;20018;-67
2021/05/18 00:32:04;;;;;;;8.77;1.08;;;;;;;;;;5010291;28;20030;-70
2021/05/18 00:34:30;;;;;;;4.43;0.70;;;;;;;;;;5011604;28;20075;-69
2021/05/18 00:36:56;;;;;;;3.67;0.60;;;;;;;;;;5010194;28;20045;-68
2021/05/18 00:39:22;;;;;;;2.38;0.60;;;;;;;;;;5012006;28;20474;-67
2021/05/18 00:41:48;;;;;;;2.67;0.60;;;;;;;;;;5013403;28;20126;-73
2021/05/18 00:44:15;;;;;;;10.95;0.93;;;;;;;;;;5007488;28;20507;-69
2021/05/18 00:46:42;;;;;;;5.20;0.63;;;;;;;;;;4990766;28;20119;-70
2021/05/18 00:49:08;;;;;;;5.15;1.15;;;;;;;;;;4990748;28;20368;-69
2021/05/18 00:51:34;;;;;;;2.42;0.73;;;;;;;;;;5016587;28;20025;-71
2021/05/18 00:54:04;;;;;;;7.30;0.90;;;;;;;;;;5019555;28;20072;-70
2021/05/18 00:58:57;;;;;;;1.48;0.50;;;;;;;;;;5011292;28;20107;-68
2021/05/18 01:01:23;;;;;;;2.97;0.80;;;;;;;;;;5011163;28;20535;-67
2021/05/18 01:03:51;;;;;;;5.03;0.70;;;;;;;;;;5011503;28;20398;-70
2021/05/18 01:09:16;;;;;;;1.60;0.50;;;;;;;;;;5011269;28;20113;-68
2021/05/18 01:11:46;;;;;;;3.97;0.73;;;;;;;;;;5013224;28;20034;-69
2021/05/18 01:14:15;;;;;;;1.40;0.40;;;;;;;;;;5010372;28;20022;-70
2021/05/18 01:16:44;;;;;;;2.70;0.52;;;;;;;;;;5011603;28;20029;-72
2021/05/18 01:19:11;;;;;;;3.75;0.70;;;;;;;;;;5043419;28;20129;-72
2021/05/18 01:21:37;;;;;;;1.60;0.40;;;;;;;;;;5043561;28;20067;-76
2021/05/18 01:24:04;;;;;;;1.63;0.50;;;;;;;;;;5043451;28;20041;-74
2021/05/18 01:26:32;;;;;;;1.17;0.60;;;;;;;;;;5011270;28;20022;-68
2021/05/18 01:28:58;;;;;;;0.88;0.50;;;;;;;;;;5011040;28;20557;-79
2021/05/18 01:31:25;;;;;;;1.65;0.68;;;;;;;;;;5011477;28;20064;-72
2021/05/18 01:33:52;;;;;;;3.45;0.65;;;;;;;;;;5043304;28;20022;-73
2021/05/18 01:36:20;;;;;;;1.08;0.50;;;;;;;;;;5043594;28;20046;-72
2021/05/18 01:44:02;;;;;;;1.42;0.50;;;;;;;;;;4992203;28;20451;-77
2021/05/18 01:46:29;;;;;;;0.73;0.40;;;;;;;;;;4991851;28;20108;-76
2021/05/18 01:49:00;;;;;;;6.60;0.65;;;;;;;;;;4991236;28;20101;-67
2021/05/18 01:51:30;;;;;;;1.35;0.40;;;;;;;;;;4989647;28;20475;-67
2021/05/18 01:53:57;;;;;;;1.73;0.43;;;;;;;;;;4991402;28;20026;-78
2021/05/18 01:59:07;;;;;;;1.50;0.40;;;;;;;;;;4990563;28;20080;-68
2021/05/18 02:01:33;;;;;;;;;;;;;;;;;;4991496;28;20356;-72
2021/05/18 02:04:00;;;;;;;2.28;0.50;;;;;;;;;;4990757;28;19908;-66
2021/05/18 02:06:27;;;;;;;2.45;0.40;;;;;;;;;;4990696;28;20101;-68
2021/05/18 02:08:53;;;;;;;0.30;0.20;;;;;;;;;;4990619;28;20029;-66
2021/05/18 02:11:19;;;;;;;2.50;0.55;;;;;;;;;;4990600;28;20027;-67
2021/05/18 02:13:48;;;;;;;2.42;0.60;;;;;;;;;;4990518;28;20428;-68
2021/05/18 02:16:29;;;;;;;1.38;0.45;;;;;;;;;;4990705;28;20021;-67
2021/05/18 02:26:42;;;;;;;0.75;0.40;;;;;;;;;;4990269;28;20072;-72
2021/05/18 02:29:08;;;;;;;9.38;0.40;;;;;;;;;;5016401;28;20026;-73
2021/05/18 02:31:34;;;;;;;0.63;0.30;;;;;;;;;;5030373;28;20053;-66
2021/05/18 02:34:00;;;;;;;4.20;0.40;;;;;;;;;;5028768;28;20025;-67
2021/05/18 02:36:27;;;;;;;3.58;0.40;;;;;;;;;;5030130;28;20053;-66
2021/05/18 02:38:54;;;;;;;1.00;0.40;;;;;;;;;;5030145;28;20055;-66
2021/05/18 02:41:20;;;;;;;3.95;0.55;;;;;;;;;;5029999;28;20028;-67
2021/05/18 02:51:27;;;;;;;2.85;0.50;;;;;;;;;;4990714;28;20501;-66
2021/05/18 02:53:53;;;;;;;0.57;0.30;;;;;;;;;;4990599;28;20117;-66
2021/05/18 02:56:28;;;;;;;1.20;0.40;;;;;;;;;;4990737;28;20026;-66
2021/05/18 02:59:27;;;;;;;3.33;0.45;;;;;;;;;;4990550;28;20501;-67
2021/05/18 03:01:51;;;;;;;1.23;0.43;;;;;;;;;;4988342;28;20042;-66
2021/05/18 03:04:17;;;;;;;1.48;0.70;;;;;;;;;;4990516;28;20030;-68
2021/05/18 03:06:44;;;;;;;1.67;0.30;;;;;;;;;;4990527;28;20031;-66
2021/05/18 03:09:12;;;;;;;1.38;0.32;;;;;;;;;;4990471;28;20026;-66
2021/05/18 03:11:39;;;;;;;0.63;0.30;;;;;;;;;;4990525;28;20030;-67
2021/05/18 03:14:06;;;;;;;0.75;0.45;;;;;;;;;;4990299;28;20022;-66
2021/05/18 03:16:32;;;;;;;2.20;0.40;;;;;;;;;;4990250;28;20047;-66
2021/05/18 03:18:58;;;;;;;0.77;0.43;;;;;;;;;;4990340;28;20042;-66
2021/05/18 03:21:24;;;;;;;1.27;0.45;;;;;;;;;;4990351;28;20022;-71
2021/05/18 03:23:51;;;;;;;0.73;0.30;;;;;;;;;;4989975;28;20091;-67
2021/05/18 03:26:17;;;;;;;1.13;0.45;;;;;;;;;;4990067;28;20082;-66
2021/05/18 03:28:43;;;;;;;1.08;0.50;;;;;;;;;;4988855;28;20049;-66
2021/05/18 03:34:27;;;;;;;1.35;0.35;;;;;;;;;;4988909;28;20364;-66
2021/05/18 03:36:42;;;;;;;1.05;0.40;;;;;;;;;;4988815;28;20107;-67
2021/05/18 03:39:08;;;;;;;4.13;0.60;;;;;;;;;;4988706;28;20034;-66
2021/05/18 03:41:48;;;;;;;1.20;0.30;;;;;;;;;;4990053;28;20030;-66
2021/05/18 04:18:46;;;;;;;1.17;0.50;;;;;;;;;;4989693;28;20085;-66
2021/05/18 04:21:27;;;;;;;1.02;0.47;;;;;;;;;;4989673;28;20023;-66
2021/05/18 04:24:24;;;;;;;0.90;0.52;;;;;;;;;;4989323;28;20753;-66
2021/05/18 04:41:00;;;;;;;1.23;0.55;;;;;;;;;;4989367;28;20053;-67
2021/05/18 04:49:40;;;;;;;1.58;0.55;;;;;;;;;;4992178;28;20096;-66
2021/05/18 04:55:03;;;;;;;2.38;0.50;;;;;;;;;;4971667;28;20133;-66
2021/05/18 05:00:04;;;;;;;2.83;0.50;;;;;;;;;;4992235;28;20134;-66
2021/05/18 05:15:42;;;;;;;0.88;0.32;;;;;;;;;;4992539;28;20479;-66
2021/05/18 05:18:12;;;;;;;1.05;0.47;;;;;;;;;;4992108;28;20018;-67
2021/05/18 05:20:38;;;;;;;1.73;0.70;;;;;;;;;;5001338;28;20030;-67
2021/05/18 05:23:04;;;;;;;2.78;0.40;;;;;;;;;;5029437;28;20049;-67
2021/05/18 05:25:30;;;;;;;2.33;0.65;;;;;;;;;;5030632;28;20492;-67
2021/05/18 05:27:57;;;;;;;0.88;0.50;;;;;;;;;;5031223;28;20040;-66
2021/05/18 05:30:23;;;;;;;0.68;0.40;;;;;;;;;;5031076;28;20097;-66
2021/05/18 05:32:49;;;;;;;3.95;0.50;;;;;;;;;;5031065;28;20036;-67
2021/05/18 05:35:16;;;;;;;1.17;0.43;;;;;;;;;;5031055;28;20106;-67
2021/05/18 05:37:42;;;;;;;1.75;0.40;;;;;;;;;;5030348;28;20057;-67
2021/05/18 05:40:08;;;;;;;1.58;0.55;;;;;;;;;;5030647;28;20069;-67
2021/05/18 05:42:35;;;;;;;2.40;0.40;;;;;;;;;;5030738;28;20025;-67
2021/05/18 05:45:01;;;;;;;2.00;0.57;;;;;;;;;;5006541;28;20030;-67
2021/05/18 05:47:27;;;;;;;4.55;0.50;;;;;;;;;;4991515;28;20102;-67
2021/05/18 05:49:54;;;;;;;1.90;0.68;;;;;;;;;;4990198;28;20117;-67
2021/05/18 05:52:22;;;;;;;1.75;0.50;;;;;;;;;;4990374;28;20027;-67
2021/05/18 05:54:49;;;;;;;1.90;0.50;;;;;;;;;;4991588;28;20037;-67
2021/05/18 05:57:17;;;;;;;1.85;0.50;;;;;;;;;;4991305;28;20501;-68
2021/05/18 05:59:43;;;;;;;1.48;0.45;;;;;;;;;;4990039;28;20031;-68
2021/05/18 06:02:09;;;;;;;2.33;0.57;;;;;;;;;;4991180;28;20071;-67
2021/05/18 06:04:35;;;;;;;1.60;0.50;;;;;;;;;;4991066;28;20014;-67
2021/05/18 06:07:01;;;;;;;3.25;0.30;;;;;;;;;;4989789;28;20455;-67
2021/05/18 06:09:28;;;;;;;1.50;0.40;;;;;;;;;;4989757;28;20067;-67
2021/05/18 06:45:51;;;;;;;1.10;0.40;;;;;;;;;;4958367;28;20023;-68
2021/05/18 06:47:35;;;;;;;2.72;0.57;;;;;;;;;;5003334;28;20065;-68
2021/05/18 06:52:38;;;;;;;1.63;0.60;;;;;;;;;;4991047;28;20124;-68
2021/05/18 06:55:08;;;;;;;1.20;0.40;;;;;;;;;;4990508;28;20031;-69
2021/05/18 06:57:37;;;;;;;0.60;0.40;;;;;;;;;;5022050;28;20033;-68
2021/05/18 07:00:20;;;;;;;1.23;0.30;;;;;;;;;;4990581;28;20113;-69
2021/05/18 07:02:48;;;;;;;3.78;0.73;;;;;;;;;;5018490;28;20022;-68
2021/05/18 07:07:45;;;;;;;0.68;0.35;;;;;;;;;;5029716;28;20493;-68
2021/05/18 07:10:11;;;;;;;0.63;0.40;;;;;;;;;;5029365;28;20026;-68
2021/05/18 07:12:38;;;;;;;0.85;0.30;;;;;;;;;;5029590;28;20051;-67
2021/05/18 07:15:05;;;;;;;0.90;0.38;;;;;;;;;;5029615;28;20025;-67
2021/05/18 07:17:31;;;;;;;1.17;0.30;;;;;;;;;;5029228;28;20018;-68
2021/05/18 07:19:57;;;;;;;0.80;0.30;;;;;;;;;;5029069;28;20034;-67
2021/05/18 07:22:23;;;;;;;0.88;0.30;;;;;;;;;;5029116;28;20021;-68
2021/05/18 07:24:49;;;;;;;1.55;0.50;;;;;;;;;;5029274;28;20026;-68
2021/05/18 07:27:16;;;;;;;1.38;0.40;;;;;;;;;;5029243;28;20018;-68
2021/05/18 07:29:42;;;;;;;1.15;0.40;;;;;;;;;;5027784;28;20025;-67
2021/05/18 07:32:08;;;;;;;1.00;0.40;;;;;;;;;;5027849;28;20018;-68
2021/05/18 07:34:34;;;;;;;0.77;0.40;;;;;;;;;;5029330;28;20026;-68
2021/05/18 07:37:00;;;;;;;1.05;0.50;;;;;;;;;;5029019;28;20045;-68
2021/05/18 07:39:26;;;;;;;1.90;0.50;;;;;;;;;;5028986;28;20065;-68
2021/05/18 07:41:52;;;;;;;2.20;0.47;;;;;;;;;;5029070;28;20043;-68
2021/05/18 07:44:18;;;;;;;3.28;0.50;;;;;;;;;;5017549;28;20018;-68
2021/05/18 07:46:46;;;;;;;1.67;0.57;;;;;;;;;;4989849;28;20019;-68
2021/05/18 07:49:26;;;;;;;1.13;0.35;;;;;;;;;;4990032;28;20022;-68
2021/05/18 08:05:18;;;;;;;0.55;0.30;;;;;;;;;;5029232;28;20022;-68
2021/05/18 08:05:34;;;;;;;0.80;0.20;;;;;;;;;;5028706;28;20424;-68
2021/05/18 08:08:00;;;;;;;4.07;0.32;;;;;;;;;;5028851;28;20055;-68
2021/05/18 08:12:53;;;;;;;2.17;0.60;;;;;;;;;;5029085;28;20028;-68
2021/05/18 08:18:26;;;;;;;0.93;0.30;;;;;;;;;;5028793;28;20090;-68
2021/05/18 10:35:54;;;;;;;11.38;0.63;;;;;;;;;;4990179;28;20051;-71
2021/05/18 10:38:42;;;;;;;1.15;0.40;;;;;;;;;;4990074;28;20482;-75
2021/05/18 10:41:19;;;;;;;2.83;0.60;;;;;;;;;;4989630;28;20038;-80
2021/05/18 10:43:55;;;;;;;1.45;0.60;;;;;;;;;;4989852;28;20056;-80
2021/05/18 10:46:26;;;;;;;1.17;0.45;;;;;;;;;;4990666;28;20033;-75
2021/05/18 10:48:54;;;;;;;1.63;0.70;;;;;;;;;;4990244;28;20505;-76
2021/05/18 10:51:26;;;;;;;2.42;0.60;;;;;;;;;;4990730;28;20049;-77
2021/05/18 10:53:52;;;;;;;;;;;;;;;;;;4993907;28;20023;-79
2021/05/18 10:56:18;;;;;;;3.08;0.90;;;;;;;;;;5011777;28;20298;-75
2021/05/18 10:58:44;;;;;;;2.08;0.40;;;;;;;;;;5011071;28;20079;-79
2021/05/18 11:01:10;;;;;;;1.92;0.57;;;;;;;;;;5017320;28;20421;-74
2021/05/18 11:03:36;;;;;;;2.45;0.50;;;;;;;;;;5021505;28;20081;-75
2021/05/18 11:06:08;;;;;;;3.45;0.57;;;;;;;;;;5027487;28;20037;-72
2021/05/18 11:08:35;;;;;;;1.27;0.52;;;;;;;;;;5019450;28;20018;-73
2021/05/18 11:11:01;;;;;;;0.70;0.38;;;;;;;;;;5018527;28;20037;-73
2021/05/18 11:13:27;;;;;;;2.90;0.82;;;;;;;;;;5022878;28;20251;-71
2021/05/18 11:15:54;;;;;;;1.27;0.60;;;;;;;;;;5028776;28;20017;-74
2021/05/18 11:18:20;;;;;;;1.63;0.70;;;;;;;;;;5028869;28;20109;-80
2021/05/18 11:20:56;;;;;;;1.63;0.57;;;;;;;;;;5027709;28;20034;-76
2021/05/18 11:23:33;;;;;;;2.38;0.70;;;;;;;;;;5028955;28;20420;-74
2021/05/18 11:26:06;;;;;;;3.95;0.70;;;;;;;;;;5006840;28;20015;-72
2021/05/18 11:28:45;;;;;;;1.95;0.50;;;;;;;;;;4990556;28;20022;-76
2021/05/18 11:31:17;;;;;;;13.77;0.70;;;;;;;;;;5013383;28;20021;-77
2021/05/18 11:33:46;;;;;;;4.35;0.43;;;;;;;;;;5024762;28;20073;-76
2021/05/18 11:36:15;;;;;;;2.15;0.45;;;;;;;;;;5027526;28;20439;-77
2021/05/18 11:38:51;;;;;;;3.83;0.68;;;;;;;;;;5028796;28;20465;-72
2021/05/18 11:41:24;;;;;;;2.35;0.60;;;;;;;;;;5027239;28;20296;-72
2021/05/18 11:43:51;;;;;;;2.25;0.60;;;;;;;;;;5028415;28;20044;-73
2021/05/18 11:46:17;;;;;;;3.70;0.60;;;;;;;;;;5027252;28;20025;-73
2021/05/18 11:49:01;;;;;;;2.78;0.50;;;;;;;;;;5026991;28;20057;-79
2021/05/18 11:51:40;;;;;;;1.75;0.60;;;;;;;;;;5028267;28;20025;-72
2021/05/18 11:54:06;;;;;;;2.13;0.60;;;;;;;;;;5025751;28;20359;-74
2021/05/18 11:56:34;;;;;;;2.10;0.50;;;;;;;;;;5019370;28;20395;-82
2021/05/18 11:59:20;;;;;;;1.65;0.70;;;;;;;;;;5020690;28;20034;-83
2021/05/18 12:01:56;;;;;;;1.15;0.35;;;;;;;;;;4989103;28;20025;-80
2021/05/18 12:04:27;;;;;;;1.17;0.52;;;;;;;;;;4989373;28;20091;-77
2021/05/18 12:06:54;;;;;;;1.25;0.30;;;;;;;;;;4989171;28;20101;-78
2021/05/18 12:09:21;;;;;;;2.50;0.60;;;;;;;;;;5020828;28;20023;-75
2021/05/18 12:11:57;;;;;;;1.10;0.60;;;;;;;;;;4989439;28;20027;-76
2021/05/18 12:14:23;;;;;;;0.82;0.40;;;;;;;;;;5021078;28;20065;-77
2021/05/18 12:16:50;;;;;;;3.05;0.60;;;;;;;;;;4989717;28;20071;-74
2021/05/18 12:19:17;;;;;;;1.83;0.50;;;;;;;;;;5020868;28;20030;-77
2021/05/18 12:21:45;;;;;;;1.83;0.60;;;;;;;;;;4989138;28;20035;-74
2021/05/18 12:24:15;;;;;;;3.88;0.60;;;;;;;;;;4989657;28;20441;-75
2021/05/18 12:26:49;;;;;;;0.98;0.40;;;;;;;;;;5020088;28;20040;-84
2021/05/18 12:29:29;;;;;;;1.17;0.50;;;;;;;;;;4991526;28;20093;-76
2021/05/18 12:31:55;;;;;;;2.92;0.60;;;;;;;;;;5009919;28;20026;-76
2021/05/18 12:34:31;;;;;;;31.10;1.23;;;;;;;;;;5010674;28;20022;-68
2021/05/18 12:36:57;;;;;;;1.85;0.60;;;;;;;;;;5023396;28;20093;-78
2021/05/18 12:39:23;;;;;;;2.50;0.50;;;;;;;;;;5027934;28;20030;-73
2021/05/18 12:41:55;;;;;;;2.60;0.60;;;;;;;;;;5028219;28;20119;-75
2021/05/18 12:44:22;;;;;;;3.73;0.43;;;;;;;;;;5028091;28;20017;-74
2021/05/18 12:47:07;;;;;;;1.55;0.60;;;;;;;;;;5028377;28;20530;-72
2021/05/18 12:49:37;;;;;;;4.22;0.50;;;;;;;;;;5027930;28;20026;-77
2021/05/18 12:52:11;;;;;;;2.13;0.63;;;;;;;;;;5027493;28;20013;-79
2021/05/18 12:54:43;;;;;;;1.33;0.60;;;;;;;;;;5026223;28;20018;-81
2021/05/18 12:57:10;;;;;;;1.67;0.60;;;;;;;;;;5027672;28;20131;-72
2021/05/18 12:59:55;;;;;;;1.80;0.82;;;;;;;;;;5027284;28;20521;-79
2021/05/18 13:02:42;;;;;;;0.65;0.43;;;;;;;;;;5026120;28;20410;-83
2021/05/18 13:05:13;;;;;;;2.70;0.65;;;;;;;;;;5027558;28;20021;-74
2021/05/18 13:07:39;;;;;;;2.65;0.60;;;;;;;;;;5043220;28;20026;-73
2021/05/18 13:10:06;;;;;;;0.88;0.50;;;;;;;;;;5043723;28;20067;-76
2021/05/18 13:12:32;;;;;;;4.97;0.60;;;;;;;;;;5011425;28;20033;-77
2021/05/18 13:15:03;;;;;;;2.38;0.52;;;;;;;;;;5045304;27;20474;-72
2021/05/18 13:17:30;;;;;;;4.53;0.70;;;;;;;;;;5030469;28;20550;-75
2021/05/18 13:20:00;;;;;;;3.38;0.55;;;;;;;;;;5011266;28;20053;-75
2021/05/18 13:22:29;;;;;;;4.00;0.80;;;;;;;;;;5010425;28;20022;-72
2021/05/18 13:27:49;;;;;;;1.45;0.55;;;;;;;;;;5019468;28;20030;-74
2021/05/18 13:30:16;;;;;;;3.03;1.10;;;;;;;;;;5012926;28;20517;-76
2021/05/18 13:32:42;;;;;;;3.00;0.80;;;;;;;;;;5009422;28;20018;-76
2021/05/18 13:35:08;;;;;;;3.53;0.60;;;;;;;;;;5010041;28;20026;-76
2021/05/18 13:37:34;;;;;;;3.28;0.60;;;;;;;;;;5009505;28;20052;-75
2021/05/18 13:40:00;;;;;;;1.95;0.80;;;;;;;;;;5010683;28;20038;-73
2021/05/18 13:42:26;;;;;;;1.10;0.60;;;;;;;;;;5010599;28;20040;-72
2021/05/18 13:44:52;;;;;;;2.13;0.90;;;;;;;;;;5010379;28;20046;-73
2021/05/18 13:47:18;;;;;;;1.90;0.90;;;;;;;;;;5009113;28;20033;-73
2021/05/18 13:49:45;;;;;;;2.90;0.60;;;;;;;;;;5010394;28;20518;-73
2021/05/18 13:52:12;;;;;;;1.65;0.80;;;;;;;;;;5009005;28;20026;-74
2021/05/18 13:54:39;;;;;;;2.20;0.60;;;;;;;;;;5008968;28;20026;-75
2021/05/18 13:57:06;;;;;;;1.67;0.70;;;;;;;;;;5010333;28;20319;-76
2021/05/18 13:59:32;;;;;;;3.13;0.70;;;;;;;;;;5010120;28;20034;-76
2021/05/18 14:01:58;;;;;;;1.98;0.63;;;;;;;;;;5008877;28;20026;-73
2021/05/18 14:04:25;;;;;;;4.05;0.80;;;;;;;;;;5010584;28;20040;-72
2021/05/18 14:09:58;;;;;;;1.23;0.60;;;;;;;;;;5011132;28;20041;-76
2021/05/18 14:12:24;;;;;;;1.70;0.63;;;;;;;;;;5009780;28;20121;-75
2021/05/18 14:14:51;;;;;;;1.95;0.80;;;;;;;;;;5010805;28;20033;-75
2021/05/18 14:17:17;;;;;;;1.90;0.80;;;;;;;;;;5021434;28;20028;-73
2021/05/18 14:19:43;;;;;;;2.10;0.70;;;;;;;;;;5029312;28;20090;-71
2021/05/18 14:22:09;;;;;;;3.60;0.73;;;;;;;;;;5030394;28;20022;-73
2021/05/18 14:24:51;;;;;;;1.90;0.75;;;;;;;;;;5030003;28;20029;-71
2021/05/18 14:27:20;;;;;;;1.90;0.73;;;;;;;;;;5029773;28;20014;-70
2021/05/18 14:29:46;;;;;;;1.83;0.73;;;;;;;;;;5028357;28;20030;-72
2021/05/18 14:32:14;;;;;;;3.15;0.60;;;;;;;;;;5029509;28;20026;-75
2021/05/18 14:34:40;;;;;;;3.72;0.60;;;;;;;;;;5029615;28;20021;-72
2021/05/18 14:37:06;;;;;;;1.73;0.70;;;;;;;;;;5028987;28;20119;-72
2021/05/18 14:39:50;;;;;;;1.75;0.60;;;;;;;;;;5029263;28;20034;-74
2021/05/18 14:45:02;;;;;;;5.07;1.05;;;;;;;;;;5014041;28;20497;-69
2021/05/18 14:47:34;;;;;;;5.13;0.60;;;;;;;;;;5009921;28;20022;-71
2021/05/18 14:55:29;;;;;;;1.38;0.47;;;;;;;;;;5010143;28;20501;-74
2021/05/18 14:57:55;;;;;;;0.93;0.50;;;;;;;;;;5008321;28;20106;-72
2021/05/18 15:00:22;;;;;;;3.33;0.75;;;;;;;;;;5008107;28;20026;-75
2021/05/18 15:02:48;;;;;;;1.48;0.60;;;;;;;;;;5009439;28;20060;-75
2021/05/18 15:05:16;;;;;;;2.75;0.47;;;;;;;;;;5009256;28;20585;-78
2021/05/18 15:07:42;;;;;;;1.38;0.60;;;;;;;;;;5007866;28;20022;-77
2021/05/18 15:10:09;;;;;;;1.70;0.50;;;;;;;;;;5009507;28;20014;-76
2021/05/18 15:12:35;;;;;;;2.30;0.60;;;;;;;;;;5020865;28;20022;-76
2021/05/18 15:15:01;;;;;;;2.33;0.60;;;;;;;;;;5017196;28;20470;-77
2021/05/18 15:17:27;;;;;;;1.17;0.57;;;;;;;;;;5023161;28;20034;-78
2021/05/18 15:19:54;;;;;;;1.95;0.70;;;;;;;;;;5028816;28;20467;-76
2021/05/18 15:22:20;;;;;;;2.00;0.70;;;;;;;;;;5028370;28;20132;-80
2021/05/18 15:24:46;;;;;;;1.85;0.60;;;;;;;;;;5029511;28;20018;-72
2021/05/18 15:27:12;;;;;;;1.42;0.55;;;;;;;;;;5027795;28;20474;-71
2021/05/18 15:29:38;;;;;;;3.47;0.60;;;;;;;;;;5023238;28;20022;-71
2021/05/18 15:32:06;;;;;;;3.33;0.70;;;;;;;;;;5027907;28;20105;-69
2021/05/18 15:34:32;;;;;;;1.65;0.50;;;;;;;;;;5017519;28;20029;-80
2021/05/18 15:36:58;;;;;;;1.60;0.60;;;;;;;;;;5013332;28;20052;-86
2021/05/18 15:39:25;;;;;;;1.55;0.43;;;;;;;;;;5008626;28;20022;-81
2021/05/18 15:41:51;;;;;;;2.90;0.80;;;;;;;;;;5008399;28;20030;-89
2021/05/18 15:44:17;;;;;;;1.80;0.52;;;;;;;;;;5009421;28;20382;-73
2021/05/18 15:46:45;;;;;;;1.00;0.50;;;;;;;;;;5009573;28;20105;-74
2021/05/18 15:49:11;;;;;;;1.08;0.45;;;;;;;;;;5007423;28;20114;-76
2021/05/18 15:51:39;;;;;;;2.78;0.90;;;;;;;;;;5011658;28;20059;-69
2021/05/18 15:54:06;;;;;;;2.47;0.35;;;;;;;;;;5022396;28;20036;-72
2021/05/18 15:56:33;;;;;;;1.52;0.70;;;;;;;;;;5028317;28;20024;-72
2021/05/18 15:58:59;;;;;;;1.00;0.50;;;;;;;;;;5028359;28;20124;-73
2021/05/18 16:01:25;;;;;;;1.95;0.60;;;;;;;;;;5028860;28;20493;-74
2021/05/18 16:03:51;;;;;;;2.40;0.90;;;;;;;;;;5028396;28;20026;-80
2021/05/18 16:06:17;;;;;;;1.15;0.57;;;;;;;;;;5028783;28;20500;-67
2021/05/18 16:11:10;;;;;;;0.63;0.50;;;;;;;;;;5017732;28;20038;-74
2021/05/18 16:13:38;;;;;;;2.00;0.57;;;;;;;;;;5007125;28;20382;-72
2021/05/18 16:16:12;;;;;;;3.92;0.95;;;;;;;;;;5008923;28;20045;-78
2021/05/18 16:18:39;;;;;;;2.92;0.50;;;;;;;;;;5009718;28;20033;-73
2021/05/18 16:21:06;;;;;;;2.85;0.52;;;;;;;;;;5008906;28;20025;-74
2021/05/18 16:23:33;;;;;;;1.52;0.55;;;;;;;;;;5008860;28;20022;-73
2021/05/18 16:25:59;;;;;;;1.83;0.77;;;;;;;;;;5008630;28;20072;-72
2021/05/18 16:28:25;;;;;;;1.15;0.52;;;;;;;;;;5098155;28;20103;-82
2021/05/18 16:30:52;;;;;;;2.50;0.70;;;;;;;;;;5110532;28;20024;-75
2021/05/18 16:33:18;;;;;;;1.67;0.63;;;;;;;;;;5111999;28;20102;-73
2021/05/18 16:35:45;;;;;;;1.40;0.60;;;;;;;;;;5110220;28;20019;-73
2021/05/18 16:38:11;;;;;;;2.45;0.70;;;;;;;;;;5110178;28;20028;-70
2021/05/18 16:40:37;;;;;;;1.80;0.60;;;;;;;;;;5111452;28;20059;-74
2021/05/18 16:43:03;;;;;;;1.33;0.50;;;;;;;;;;5112752;28;20020;-72
2021/05/18 16:45:29;;;;;;;1.98;0.65;;;;;;;;;;5114564;28;20039;-78
2021/05/18 16:47:56;;;;;;;5.25;0.77;;;;;;;;;;5114406;28;20019;-71
2021/05/18 16:50:22;;;;;;;1.98;0.70;;;;;;;;;;5115371;28;20032;-71
2021/05/18 16:52:48;;;;;;;2.17;0.88;;;;;;;;;;5115113;28;20091;-71
2021/05/18 16:55:14;;;;;;;1.45;0.60;;;;;;;;;;5115130;28;20050;-71
2021/05/18 16:57:41;;;;;;;1.67;0.82;;;;;;;;;;5114949;28;20015;-71
2021/05/18 17:00:08;;;;;;;4.72;0.70;;;;;;;;;;5114755;28;20050;-74
2021/05/18 17:02:34;;;;;;;3.88;0.80;;;;;;;;;;5114799;28;20079;-71
2021/05/18 17:05:01;;;;;;;2.10;0.70;;;;;;;;;;5113547;28;20028;-72
2021/05/18 17:07:27;;;;;;;2.90;0.90;;;;;;;;;;5114808;28;20430;-71
2021/05/18 17:09:53;;;;;;;1.40;0.77;;;;;;;;;;5113626;28;20434;-72
2021/05/18 17:12:20;;;;;;;2.25;0.80;;;;;;;;;;5113425;28;20024;-69
2021/05/18 17:14:49;;;;;;;3.50;0.73;;;;;;;;;;5114594;28;20020;-72
2021/05/18 17:17:16;;;;;;;3.22;1.00;;;;;;;;;;5113218;28;20073;-74
2021/05/18 17:19:43;;;;;;;1.60;0.63;;;;;;;;;;5114634;28;20027;-77
2021/05/18 17:22:16;;;;;;;3.30;0.70;;;;;;;;;;5044329;28;20068;-77
2021/05/18 17:24:42;;;;;;;2.08;0.80;;;;;;;;;;5014797;28;20022;-70
2021/05/18 17:27:18;;;;;;;2.45;0.80;;;;;;;;;;5045521;28;20023;-70
2021/05/18 17:29:44;;;;;;;2.22;0.68;;;;;;;;;;5113314;28;20023;-79
2021/05/18 17:32:11;;;;;;;1.25;0.60;;;;;;;;;;5114364;28;20020;-72
2021/05/18 17:34:40;;;;;;;1.15;0.70;;;;;;;;;;5113066;28;20020;-75
2021/05/18 17:37:08;;;;;;;3.30;1.05;;;;;;;;;;5113796;28;20044;-68
2021/05/18 17:39:34;;;;;;;3.42;0.80;;;;;;;;;;5114598;28;20387;-72
2021/05/18 17:42:00;;;;;;;1.98;0.77;;;;;;;;;;5112851;28;20059;-78
2021/05/18 17:44:28;;;;;;;1.35;0.80;;;;;;;;;;5114161;28;20500;-74
2021/05/18 17:46:55;;;;;;;1.35;0.65;;;;;;;;;;5114267;28;20357;-71
2021/05/18 17:49:22;;;;;;;2.63;0.80;;;;;;;;;;5112831;28;20479;-68
2021/05/18 17:51:49;;;;;;;3.35;0.68;;;;;;;;;;5114085;28;20046;-69
2021/05/18 17:54:15;;;;;;;1.60;0.70;;;;;;;;;;5113130;28;20023;-69
2021/05/18 17:56:41;;;;;;;2.13;0.90;;;;;;;;;;5113602;28;20098;-70
2021/05/18 17:59:07;;;;;;;1.70;0.80;;;;;;;;;;5113975;28;20027;-71
2021/05/18 18:01:37;;;;;;;1.08;0.63;;;;;;;;;;5061861;28;20026;-69
2021/05/18 18:04:04;;;;;;;2.83;0.98;;;;;;;;;;5010534;28;20022;-73
2021/05/18 18:06:30;;;;;;;3.20;1.10;;;;;;;;;;5009033;28;20104;-68
2021/05/18 18:08:58;;;;;;;4.10;1.00;;;;;;;;;;5010364;28;20428;-69
2021/05/18 18:11:24;;;;;;;2.03;0.80;;;;;;;;;;5023661;28;20006;-68
2021/05/18 18:13:51;;;;;;;1.88;0.90;;;;;;;;;;5009479;28;20174;-75
2021/05/18 18:16:17;;;;;;;2.22;0.90;;;;;;;;;;5013790;28;20035;-78
2021/05/18 18:18:43;;;;;;;9.07;1.90;;;;;;;;;;5021014;28;20056;-71
2021/05/18 18:21:10;;;;;;;3.00;1.13;;;;;;;;;;5025585;28;20026;-73
2021/05/18 18:23:37;;;;;;;3.08;1.40;;;;;;;;;;5025534;28;20025;-72
2021/05/18 18:26:03;;;;;;;15.52;2.00;;;;;;;;;;5030254;28;20092;-70
2021/05/18 18:28:29;;;;;;;5.45;1.83;;;;;;;;;;5027127;28;20026;-73
2021/05/18 18:30:55;;;;;;;6.00;2.08;;;;;;;;;;5019590;28;20030;-70
2021/05/18 18:33:22;;;;;;;6.07;2.08;;;;;;;;;;5009020;28;20037;-73
2021/05/18 18:35:52;;;;;;;4.10;2.00;;;;;;;;;;5007887;28;20018;-70
2021/05/18 18:38:18;;;;;;;8.57;1.70;;;;;;;;;;5010224;28;20383;-69
2021/05/18 18:40:44;;;;;;;10.90;1.83;;;;;;;;;;5009084;28;20034;-73
2021/05/18 18:43:11;;;;;;;8.38;1.70;;;;;;;;;;5008977;28;20026;-70
2021/05/18 18:45:37;;;;;;;3.80;1.30;;;;;;;;;;5008815;28;20402;-71
2021/05/18 18:48:05;;;;;;;5.07;1.45;;;;;;;;;;5009058;28;20091;-71
2021/05/18 18:50:33;;;;;;;6.18;1.40;;;;;;;;;;5010524;28;20711;-70
2021/05/18 18:53:30;;;;;;;6.65;1.38;;;;;;;;;;5008892;28;20026;-71
2021/05/18 18:55:48;;;;;;;3.90;1.40;;;;;;;;;;5009854;28;20091;-69
2021/05/18 18:58:16;;;;;;;8.48;1.20;;;;;;;;;;5010231;28;20022;-70
2021/05/18 19:00:42;;;;;;;4.47;1.20;;;;;;;;;;5009157;28;20041;-71
2021/05/18 19:03:17;;;;;;;5.68;1.23;;;;;;;;;;5008717;28;20029;-73
2021/05/18 19:13:36;;;;;;;3.03;1.20;;;;;;;;;;5010250;28;20026;-70
2021/05/18 19:16:02;;;;;;;4.63;1.10;;;;;;;;;;5008714;28;20026;-70
2021/05/18 19:18:28;;;;;;;5.70;1.13;;;;;;;;;;5008744;28;20118;-70
2021/05/18 19:20:54;;;;;;;5.43;1.25;;;;;;;;;;5008651;28;20420;-71
2021/05/18 19:23:23;;;;;;;3.15;1.00;;;;;;;;;;5009837;28;20029;-70
2021/05/18 19:25:52;;;;;;;4.80;1.42;;;;;;;;;;5009896;28;20406;-71
2021/05/18 19:28:18;;;;;;;2.50;0.93;;;;;;;;;;5008525;28;20436;-71
2021/05/18 19:30:45;;;;;;;2.50;1.00;;;;;;;;;;5009861;28;20079;-70
2021/05/18 19:33:14;;;;;;;4.90;1.30;;;;;;;;;;5008435;28;20056;-70
2021/05/18 19:49:06;;;;;;;3.67;1.25;;;;;;;;;;5009476;28;20037;-77
2021/05/18 19:51:35;;;;;;;4.88;1.23;;;;;;;;;;5009332;28;20386;-70
2021/05/18 19:54:01;;;;;;;4.60;1.20;;;;;;;;;;5007924;28;20022;-71
2021/05/18 19:57:31;;;;;;;3.80;1.45;;;;;;;;;;5008939;28;20479;-74
2021/05/18 20:23:26;;;;;;;3.42;1.20;;;;;;;;;;5012501;28;20108;-71
2021/05/18 20:25:52;;;;;;;3.75;1.20;;;;;;;;;;5010741;28;20025;-72
2021/05/18 20:28:18;;;;;;;3.53;1.05;;;;;;;;;;5012710;28;20030;-69
2021/05/18 20:30:47;;;;;;;3.22;1.08;;;;;;;;;;5011213;28;20026;-70
2021/05/18 20:33:26;;;;;;;2.35;1.13;;;;;;;;;;5012399;28;20105;-70
2021/05/18 20:40:54;;;;;;;3.72;1.02;;;;;;;;;;5012040;28;20034;-70
2021/05/18 20:43:21;;;;;;;4.38;1.15;;;;;;;;;;5010601;28;20021;-76
2021/05/18 20:45:47;;;;;;;2.65;1.13;;;;;;;;;;5020747;28;20029;-69
2021/05/18 20:48:13;;;;;;;2.28;1.02;;;;;;;;;;5018094;28;20030;-71
2021/05/18 20:50:39;;;;;;;3.72;1.40;;;;;;;;;;5022466;28;20067;-71
2021/05/18 20:53:05;;;;;;;7.45;2.58;;;;;;;;;;5026399;28;20100;-71